createdAt,value
2022-09-23T09:42:43.541Z,6.65
2022-09-23T09:47:51.838Z,7.00
2022-09-23T09:52:43.469Z,7.38
2022-09-23T09:57:42.829Z,7.65
2022-09-23T10:02:44.112Z,7.33
2022-09-23T10:07:37.330Z,7.43
2022-09-23T10:12:28.850Z,8.32
2022-09-23T10:17:25.091Z,7.85
2022-09-23T10:22:29.848Z,8.10
2022-09-23T10:27:31.724Z,8.15
2022-09-23T10:32:29.904Z,8.23
2022-09-23T10:37:30.524Z,8.65
2022-09-23T10:42:40.789Z,9.30
2022-09-23T10:47:43.908Z,9.07
2022-09-23T10:52:47.658Z,8.85
2022-09-23T10:57:54.359Z,8.07
2022-09-23T11:03:15.516Z,7.83
2022-09-23T11:08:29.909Z,7.00
2022-09-23T11:13:33.654Z,5.50
2022-09-23T11:18:50.741Z,4.97
2022-09-23T11:24:00.587Z,3.50
2022-09-23T11:29:14.438Z,3.13
2022-09-23T11:34:30.407Z,3.63
2022-09-23T11:39:26.518Z,4.03
2022-09-23T11:44:23.618Z,4.43
2022-09-23T11:49:22.163Z,4.10
2022-09-23T11:54:26.361Z,3.92
2022-09-23T11:59:34.635Z,4.22
2022-09-23T12:04:47.472Z,4.17
2022-09-23T12:10:01.625Z,3.90
2022-09-23T12:15:04.856Z,3.78
2022-09-23T12:20:31.437Z,5.03
2022-09-23T12:25:40.342Z,5.07
2022-09-23T12:30:35.069Z,5.28
2022-09-23T12:35:35.808Z,4.30
2022-09-23T12:40:36.262Z,4.05
2022-09-23T12:45:41.812Z,3.50
2022-09-23T12:50:55.837Z,2.90
2022-09-23T12:55:52.197Z,2.30
2022-09-23T13:01:06.600Z,2.75
2022-09-23T13:06:16.223Z,2.30
2022-09-23T13:11:12.973Z,2.90
2022-09-23T13:16:16.128Z,3.35
2022-09-23T13:21:20.509Z,4.63
2022-09-23T13:26:14.423Z,4.37
2022-09-23T13:31:08.752Z,4.13
2022-09-23T13:36:07.152Z,4.57
2022-09-23T13:41:05.626Z,5.37
2022-09-23T13:45:58.490Z,4.60
2022-09-23T13:50:53.759Z,4.70
2022-09-23T13:55:51.632Z,6.00
2022-09-23T14:00:48.884Z,6.70
2022-09-23T14:05:43.382Z,6.50
2022-09-23T14:10:34.448Z,6.18
2022-09-23T14:15:25.806Z,7.30
2022-09-23T14:20:20.845Z,7.03
2022-09-23T14:25:17.566Z,7.20
2022-09-23T14:30:20.713Z,6.67
2022-09-23T14:35:27.324Z,8.02
2022-09-23T14:40:28.501Z,9.32
2022-09-23T14:45:23.201Z,8.50
2022-09-23T14:50:37.066Z,8.95
2022-09-23T14:55:32.025Z,10.20
2022-09-23T15:00:28.093Z,9.50
2022-09-23T15:05:26.868Z,9.27
2022-09-23T15:10:23.780Z,9.40
2022-09-23T15:15:18.383Z,8.48
2022-09-23T15:20:19.723Z,7.88
2022-09-23T15:25:21.338Z,8.65
2022-09-23T15:30:18.332Z,8.10
2022-09-23T15:35:09.893Z,8.07
2022-09-23T15:40:03.685Z,8.87
2022-09-23T15:45:08.451Z,9.32
2022-09-23T15:50:00.054Z,9.63
2022-09-23T15:54:50.361Z,10.10
2022-09-23T15:59:41.147Z,9.88
2022-09-23T16:04:40.022Z,10.10
2022-09-23T16:09:31.908Z,9.95
2022-09-23T16:14:23.689Z,10.07
2022-09-23T16:19:16.704Z,10.88
2022-09-23T16:24:16.375Z,10.32
2022-09-23T16:29:07.119Z,11.20
2022-09-23T16:34:08.932Z,12.37
2022-09-23T16:39:03.030Z,12.25
2022-09-23T16:43:56.627Z,13.13
2022-09-23T16:48:52.888Z,12.05
2022-09-23T16:53:46.050Z,11.90
2022-09-23T16:58:37.460Z,11.82
2022-09-23T17:03:43.742Z,11.50
2022-09-23T17:08:35.128Z,11.63
2022-09-23T17:13:27.797Z,11.63
2022-09-23T17:18:19.654Z,10.93
2022-09-23T17:23:15.037Z,11.48
2022-09-23T17:28:06.496Z,11.65
2022-09-23T17:33:04.113Z,12.93
2022-09-23T17:37:57.648Z,12.90
2022-09-23T17:42:53.854Z,13.43
2022-09-23T17:47:52.474Z,13.90
2022-09-23T17:52:45.715Z,13.50
2022-09-23T17:57:36.310Z,14.55
2022-09-23T18:02:29.809Z,14.85
2022-09-23T18:07:20.526Z,14.48
2022-09-23T18:12:12.119Z,14.93
2022-09-23T18:17:03.073Z,14.57
2022-09-23T18:22:01.749Z,15.47
2022-09-23T18:26:53.668Z,14.93
2022-09-23T18:31:44.712Z,15.97
2022-09-23T18:36:35.739Z,14.85
2022-09-23T18:41:30.240Z,16.23
2022-09-23T18:46:23.001Z,16.35
2022-09-23T18:51:14.734Z,14.68
2022-09-23T18:56:08.931Z,12.60
2022-09-23T19:01:06.487Z,10.07
2022-09-23T19:05:57.054Z,9.68
2022-09-23T19:10:46.890Z,8.53
2022-09-23T19:15:36.532Z,8.93
2022-09-23T19:20:30.553Z,9.15
2022-09-23T19:25:21.651Z,9.75
2022-09-23T19:30:13.792Z,9.83
2022-09-23T19:35:04.832Z,12.43
2022-09-23T19:39:58.227Z,12.57
2022-09-23T19:44:48.525Z,12.70
2022-09-23T19:49:38.712Z,13.15
2022-09-23T19:54:29.324Z,13.00
2022-09-23T19:59:22.629Z,13.15
2022-09-23T20:04:13.310Z,14.43
2022-09-23T20:09:04.164Z,15.30
2022-09-23T20:14:00.087Z,15.57
2022-09-23T20:18:55.839Z,15.87
2022-09-23T20:23:46.730Z,15.63
2022-09-23T20:28:37.025Z,17.10
2022-09-23T20:33:27.384Z,16.65
2022-09-23T20:38:21.628Z,15.85
2022-09-23T20:43:16.214Z,15.93
2022-09-23T20:48:11.363Z,16.60
2022-09-23T20:53:02.090Z,17.03
2022-09-23T20:57:55.655Z,17.70
2022-09-23T21:02:46.786Z,18.92
2022-09-23T21:07:37.722Z,19.60
2022-09-23T21:12:28.356Z,21.17
2022-09-23T21:17:21.836Z,23.05
2022-09-23T21:22:12.704Z,23.52
2022-09-23T21:27:03.414Z,23.95
2022-09-23T21:31:53.851Z,22.63
2022-09-23T21:36:48.329Z,24.48
2022-09-23T21:41:39.422Z,24.90
2022-09-23T21:46:30.706Z,25.80
2022-09-23T21:51:25.238Z,22.97
2022-09-23T21:56:21.161Z,22.13
2022-09-23T22:01:14.160Z,20.97
2022-09-23T22:06:09.820Z,19.27
2022-09-23T22:11:00.279Z,18.50
2022-09-23T22:15:53.558Z,18.42
2022-09-23T22:20:44.399Z,17.45
2022-09-23T22:25:35.177Z,18.00
2022-09-23T22:30:38.116Z,17.42
2022-09-23T22:35:31.893Z,16.38
2022-09-23T22:40:25.426Z,17.67
2022-09-23T22:45:16.159Z,17.20
2022-09-23T22:50:07.104Z,17.65
2022-09-23T22:55:00.517Z,18.50
2022-09-23T22:59:51.051Z,16.67
2022-09-23T23:04:41.985Z,16.77
2022-09-23T23:09:32.422Z,16.42
2022-09-23T23:14:26.579Z,16.07
2022-09-23T23:19:19.447Z,14.90
2022-09-23T23:24:10.483Z,16.25
2022-09-23T23:29:01.794Z,15.68
2022-09-23T23:33:55.347Z,14.87
2022-09-23T23:38:48.522Z,17.70
2022-09-23T23:43:39.589Z,20.67
2022-09-23T23:48:32.097Z,20.48
2022-09-23T23:53:25.441Z,23.75
2022-09-23T23:58:17.436Z,24.55
